sensor_id;sensor_type;location;lat;lon;timestamp;pressure;altitude;pressure_sealevel;temperature;humidity
64189;BME280;50493;50.970;10.082;2023-05-23T00:02:12;98988.75;;;20.94;52.75
64189;BME280;50493;50.970;10.082;2023-05-23T00:04:39;98986.19;;;20.92;52.74
64189;BME280;50493;50.970;10.082;2023-05-23T00:07:06;98995.34;;;20.75;53.14
64189;BME280;50493;50.970;10.082;2023-05-23T00:09:31;98986.84;;;20.57;53.48
64189;BME280;50493;50.970;10.082;2023-05-23T00:11:56;98986.41;;;20.63;53.16
64189;BME280;50493;50.970;10.082;2023-05-23T00:14:22;98987.47;;;20.61;53.23
64189;BME280;50493;50.970;10.082;2023-05-23T00:16:48;98989.06;;;20.63;51.46
64189;BME280;50493;50.970;10.082;2023-05-23T00:19:14;98978.25;;;20.53;52.88
64189;BME280;50493;50.970;10.082;2023-05-23T00:21:39;98981.31;;;20.47;53.09
64189;BME280;50493;50.970;10.082;2023-05-23T00:24:07;98992.16;;;20.31;53.63
64189;BME280;50493;50.970;10.082;2023-05-23T00:26:34;98987.16;;;20.27;53.82
64189;BME280;50493;50.970;10.082;2023-05-23T00:28:59;98990.03;;;20.24;53.78
64189;BME280;50493;50.970;10.082;2023-05-23T00:31:24;98993.09;;;20.17;53.91
64189;BME280;50493;50.970;10.082;2023-05-23T00:33:50;98995.13;;;20.14;53.78
64189;BME280;50493;50.970;10.082;2023-05-23T00:36:15;98996.50;;;20.19;53.56
64189;BME280;50493;50.970;10.082;2023-05-23T00:38:42;99001.03;;;20.17;53.48
64189;BME280;50493;50.970;10.082;2023-05-23T00:41:11;98995.00;;;20.15;53.52
64189;BME280;50493;50.970;10.082;2023-05-23T00:43:36;99003.13;;;20.12;53.50
64189;BME280;50493;50.970;10.082;2023-05-23T00:46:02;99001.63;;;20.08;53.52
64189;BME280;50493;50.970;10.082;2023-05-23T00:48:28;99011.19;;;19.98;53.53
64189;BME280;50493;50.970;10.082;2023-05-23T00:50:54;99016.84;;;19.79;54.07
64189;BME280;50493;50.970;10.082;2023-05-23T00:53:20;99015.38;;;19.87;53.73
64189;BME280;50493;50.970;10.082;2023-05-23T00:55:45;99017.47;;;19.82;53.71
64189;BME280;50493;50.970;10.082;2023-05-23T00:58:12;99013.88;;;19.83;53.50
64189;BME280;50493;50.970;10.082;2023-05-23T01:00:40;99024.25;;;19.74;53.77
64189;BME280;50493;50.970;10.082;2023-05-23T01:03:06;99016.41;;;19.72;53.87
64189;BME280;50493;50.970;10.082;2023-05-23T01:05:31;99019.34;;;19.67;53.80
64189;BME280;50493;50.970;10.082;2023-05-23T01:07:56;99018.16;;;19.59;54.05
64189;BME280;50493;50.970;10.082;2023-05-23T01:10:24;99010.41;;;19.56;53.91
64189;BME280;50493;50.970;10.082;2023-05-23T01:12:57;99015.72;;;19.56;54.13
64189;BME280;50493;50.970;10.082;2023-05-23T01:15:29;99018.19;;;19.44;54.15
64189;BME280;50493;50.970;10.082;2023-05-23T01:18:01;99015.75;;;19.27;54.82
64189;BME280;50493;50.970;10.082;2023-05-23T01:20:34;99019.16;;;19.29;54.41
64189;BME280;50493;50.970;10.082;2023-05-23T01:23:12;99017.66;;;19.25;54.25
64189;BME280;50493;50.970;10.082;2023-05-23T01:25:56;99024.47;;;19.29;54.29
64189;BME280;50493;50.970;10.082;2023-05-23T01:28:30;99014.44;;;19.19;54.31
64189;BME280;50493;50.970;10.082;2023-05-23T01:30:57;99018.03;;;19.18;54.40
64189;BME280;50493;50.970;10.082;2023-05-23T01:33:26;99020.09;;;19.13;54.54
64189;BME280;50493;50.970;10.082;2023-05-23T01:35:52;99013.50;;;19.06;54.53
64189;BME280;50493;50.970;10.082;2023-05-23T01:38:19;99012.94;;;19.01;54.54
64189;BME280;50493;50.970;10.082;2023-05-23T01:40:44;99021.94;;;18.98;54.45
64189;BME280;50493;50.970;10.082;2023-05-23T01:43:09;99015.03;;;18.96;54.68
64189;BME280;50493;50.970;10.082;2023-05-23T01:45:36;99010.50;;;18.98;54.21
64189;BME280;50493;50.970;10.082;2023-05-23T01:48:02;99016.34;;;18.89;54.70
64189;BME280;50493;50.970;10.082;2023-05-23T01:50:29;99023.00;;;18.81;54.74
64189;BME280;50493;50.970;10.082;2023-05-23T01:52:56;99022.41;;;18.76;54.57
64189;BME280;50493;50.970;10.082;2023-05-23T01:55:22;99019.00;;;18.74;54.70
64189;BME280;50493;50.970;10.082;2023-05-23T01:57:49;99017.31;;;18.73;54.51
64189;BME280;50493;50.970;10.082;2023-05-23T02:00:16;99024.84;;;18.65;54.59
64189;BME280;50493;50.970;10.082;2023-05-23T02:02:43;99019.88;;;18.75;54.28
64189;BME280;50493;50.970;10.082;2023-05-23T02:05:09;99020.88;;;18.86;53.70
64189;BME280;50493;50.970;10.082;2023-05-23T02:07:34;99033.38;;;18.70;54.47
64189;BME280;50493;50.970;10.082;2023-05-23T02:10:00;99034.31;;;18.83;54.43
64189;BME280;50493;50.970;10.082;2023-05-23T02:12:25;99033.38;;;18.70;53.97
64189;BME280;50493;50.970;10.082;2023-05-23T02:14:52;99033.22;;;18.73;53.74
64189;BME280;50493;50.970;10.082;2023-05-23T02:17:17;99036.41;;;18.78;53.83
64189;BME280;50493;50.970;10.082;2023-05-23T02:19:44;99030.16;;;18.79;53.74
64189;BME280;50493;50.970;10.082;2023-05-23T02:22:10;99037.00;;;18.69;53.90
64189;BME280;50493;50.970;10.082;2023-05-23T02:24:35;99039.06;;;18.93;53.66
64189;BME280;50493;50.970;10.082;2023-05-23T02:27:00;99038.50;;;18.73;53.77
64189;BME280;50493;50.970;10.082;2023-05-23T02:29:26;99035.06;;;18.71;53.53
64189;BME280;50493;50.970;10.082;2023-05-23T02:31:51;99039.34;;;18.74;53.45
64189;BME280;50493;50.970;10.082;2023-05-23T02:34:16;99046.59;;;18.70;53.54
64189;BME280;50493;50.970;10.082;2023-05-23T02:36:43;99045.88;;;18.68;53.68
64189;BME280;50493;50.970;10.082;2023-05-23T02:39:08;99050.78;;;18.74;52.87
64189;BME280;50493;50.970;10.082;2023-05-23T02:41:34;99044.91;;;18.83;52.85
64189;BME280;50493;50.970;10.082;2023-05-23T02:43:59;99048.88;;;18.62;53.34
64189;BME280;50493;50.970;10.082;2023-05-23T02:46:25;99056.63;;;18.65;53.30
64189;BME280;50493;50.970;10.082;2023-05-23T02:48:50;99047.56;;;18.69;53.13
64189;BME280;50493;50.970;10.082;2023-05-23T02:51:15;99057.03;;;18.87;52.48
64189;BME280;50493;50.970;10.082;2023-05-23T02:53:42;99054.75;;;18.96;52.44
64189;BME280;50493;50.970;10.082;2023-05-23T02:56:07;99051.84;;;19.00;52.13
64189;BME280;50493;50.970;10.082;2023-05-23T02:58:34;99054.75;;;18.81;52.49
64189;BME280;50493;50.970;10.082;2023-05-23T03:01:04;99066.09;;;18.83;52.63
64189;BME280;50493;50.970;10.082;2023-05-23T03:03:29;99055.31;;;18.72;52.67
64189;BME280;50493;50.970;10.082;2023-05-23T03:05:55;99053.31;;;18.76;52.66
64189;BME280;50493;50.970;10.082;2023-05-23T03:10:48;99046.63;;;18.84;52.23
64189;BME280;50493;50.970;10.082;2023-05-23T03:13:13;99053.25;;;18.92;51.88
64189;BME280;50493;50.970;10.082;2023-05-23T03:15:38;99056.09;;;18.89;51.99
64189;BME280;50493;50.970;10.082;2023-05-23T03:18:04;99050.03;;;19.01;52.99
64189;BME280;50493;50.970;10.082;2023-05-23T03:20:29;99056.63;;;18.79;52.21
64189;BME280;50493;50.970;10.082;2023-05-23T03:22:54;99059.69;;;18.73;52.31
64189;BME280;50493;50.970;10.082;2023-05-23T03:25:20;99054.19;;;18.76;52.03
64189;BME280;50493;50.970;10.082;2023-05-23T03:27:46;99055.88;;;18.63;52.53
64189;BME280;50493;50.970;10.082;2023-05-23T03:30:12;99057.78;;;18.75;58.60
64189;BME280;50493;50.970;10.082;2023-05-23T03:32:37;99054.63;;;18.54;52.88
64189;BME280;50493;50.970;10.082;2023-05-23T03:35:03;99053.97;;;18.65;52.73
64189;BME280;50493;50.970;10.082;2023-05-23T03:37:29;99059.97;;;18.52;53.24
64189;BME280;50493;50.970;10.082;2023-05-23T03:39:54;99058.88;;;18.57;52.74
64189;BME280;50493;50.970;10.082;2023-05-23T03:42:19;99056.78;;;18.47;53.12
64189;BME280;50493;50.970;10.082;2023-05-23T03:44:46;99071.97;;;18.13;54.28
64189;BME280;50493;50.970;10.082;2023-05-23T03:47:11;99075.91;;;18.06;54.61
64189;BME280;50493;50.970;10.082;2023-05-23T03:49:37;99076.09;;;18.03;54.94
64189;BME280;50493;50.970;10.082;2023-05-23T03:52:02;99081.47;;;18.32;53.95
64189;BME280;50493;50.970;10.082;2023-05-23T03:54:28;99085.03;;;18.16;54.30
64189;BME280;50493;50.970;10.082;2023-05-23T03:56:53;99084.66;;;17.76;55.42
64189;BME280;50493;50.970;10.082;2023-05-23T03:59:19;99092.81;;;17.56;56.18
64189;BME280;50493;50.970;10.082;2023-05-23T04:01:45;99095.72;;;17.99;55.25
64189;BME280;50493;50.970;10.082;2023-05-23T04:04:11;99106.41;;;17.81;55.70
64189;BME280;50493;50.970;10.082;2023-05-23T04:06:36;99106.44;;;17.48;56.03
64189;BME280;50493;50.970;10.082;2023-05-23T04:09:02;99100.16;;;17.50;56.63
64189;BME280;50493;50.970;10.082;2023-05-23T04:11:27;99107.41;;;17.63;55.87
64189;BME280;50493;50.970;10.082;2023-05-23T04:13:54;99102.91;;;17.65;55.76
64189;BME280;50493;50.970;10.082;2023-05-23T04:16:19;99108.94;;;17.67;55.70
64189;BME280;50493;50.970;10.082;2023-05-23T04:18:48;99106.66;;;17.61;55.90
64189;BME280;50493;50.970;10.082;2023-05-23T04:21:13;99107.53;;;17.77;55.18
64189;BME280;50493;50.970;10.082;2023-05-23T04:23:38;99099.13;;;18.01;54.28
64189;BME280;50493;50.970;10.082;2023-05-23T04:26:04;99104.25;;;18.04;54.11
64189;BME280;50493;50.970;10.082;2023-05-23T04:28:32;99106.75;;;18.22;53.23
64189;BME280;50493;50.970;10.082;2023-05-23T04:30:58;99106.59;;;18.25;53.15
64189;BME280;50493;50.970;10.082;2023-05-23T04:33:24;99102.03;;;18.87;51.93
64189;BME280;50493;50.970;10.082;2023-05-23T04:35:51;99100.41;;;18.40;52.44
64189;BME280;50493;50.970;10.082;2023-05-23T04:38:16;99099.06;;;18.33;52.65
64189;BME280;50493;50.970;10.082;2023-05-23T04:40:42;99100.78;;;18.34;52.82
64189;BME280;50493;50.970;10.082;2023-05-23T04:43:07;99100.91;;;18.77;51.24
64189;BME280;50493;50.970;10.082;2023-05-23T04:45:34;99098.81;;;18.68;51.11
64189;BME280;50493;50.970;10.082;2023-05-23T04:48:00;99110.41;;;17.57;55.06
64189;BME280;50493;50.970;10.082;2023-05-23T04:50:26;99112.94;;;17.58;54.74
64189;BME280;50493;50.970;10.082;2023-05-23T04:52:57;99118.41;;;18.19;53.02
64189;BME280;50493;50.970;10.082;2023-05-23T04:55:22;99118.94;;;18.40;52.42
64189;BME280;50493;50.970;10.082;2023-05-23T04:57:47;99121.06;;;18.33;53.33
64189;BME280;50493;50.970;10.082;2023-05-23T05:00:13;99130.28;;;18.42;53.02
64189;BME280;50493;50.970;10.082;2023-05-23T05:02:40;99128.50;;;17.96;54.05
64189;BME280;50493;50.970;10.082;2023-05-23T05:05:06;99148.81;;;17.46;55.07
64189;BME280;50493;50.970;10.082;2023-05-23T05:07:31;99143.44;;;17.81;55.32
64189;BME280;50493;50.970;10.082;2023-05-23T05:09:58;99150.91;;;17.24;56.06
64189;BME280;50493;50.970;10.082;2023-05-23T05:12:23;99145.63;;;17.24;56.49
64189;BME280;50493;50.970;10.082;2023-05-23T05:14:48;99153.88;;;17.17;55.99
64189;BME280;50493;50.970;10.082;2023-05-23T05:17:14;99149.16;;;17.07;56.64
64189;BME280;50493;50.970;10.082;2023-05-23T05:19:39;99156.94;;;16.92;57.43
64189;BME280;50493;50.970;10.082;2023-05-23T05:22:05;99160.66;;;16.88;57.41
64189;BME280;50493;50.970;10.082;2023-05-23T05:24:30;99169.56;;;16.68;56.43
64189;BME280;50493;50.970;10.082;2023-05-23T05:26:58;99163.19;;;16.55;56.96
64189;BME280;50493;50.970;10.082;2023-05-23T05:29:23;99170.81;;;16.78;56.34
64189;BME280;50493;50.970;10.082;2023-05-23T05:31:49;99175.63;;;17.05;55.98
64189;BME280;50493;50.970;10.082;2023-05-23T05:34:15;99176.22;;;16.75;56.10
64189;BME280;50493;50.970;10.082;2023-05-23T05:36:40;99175.88;;;17.00;55.75
64189;BME280;50493;50.970;10.082;2023-05-23T05:39:10;99168.28;;;17.28;54.37
64189;BME280;50493;50.970;10.082;2023-05-23T05:41:37;99174.88;;;16.85;55.76
64189;BME280;50493;50.970;10.082;2023-05-23T05:44:04;99171.75;;;16.77;56.02
64189;BME280;50493;50.970;10.082;2023-05-23T05:46:29;99172.81;;;16.56;56.88
64189;BME280;50493;50.970;10.082;2023-05-23T05:48:54;99173.28;;;16.46;57.17
64189;BME280;50493;50.970;10.082;2023-05-23T05:51:20;99173.75;;;16.55;57.57
64189;BME280;50493;50.970;10.082;2023-05-23T05:53:45;99168.47;;;16.55;56.93
64189;BME280;50493;50.970;10.082;2023-05-23T05:56:11;99172.19;;;16.50;56.94
64189;BME280;50493;50.970;10.082;2023-05-23T05:58:36;99180.94;;;16.33;57.80
64189;BME280;50493;50.970;10.082;2023-05-23T06:01:03;99180.25;;;16.30;57.70
64189;BME280;50493;50.970;10.082;2023-05-23T06:03:29;99188.47;;;16.41;57.37
64189;BME280;50493;50.970;10.082;2023-05-23T06:05:56;99183.66;;;16.32;57.53
64189;BME280;50493;50.970;10.082;2023-05-23T06:08:21;99181.81;;;16.34;57.43
64189;BME280;50493;50.970;10.082;2023-05-23T06:10:46;99179.03;;;16.55;56.82
64189;BME280;50493;50.970;10.082;2023-05-23T06:13:12;99179.94;;;16.36;57.10
64189;BME280;50493;50.970;10.082;2023-05-23T06:15:37;99170.63;;;16.46;55.83
64189;BME280;50493;50.970;10.082;2023-05-23T06:18:04;99173.13;;;16.67;56.04
64189;BME280;50493;50.970;10.082;2023-05-23T06:20:30;99176.56;;;16.51;56.50
64189;BME280;50493;50.970;10.082;2023-05-23T06:22:55;99183.06;;;17.14;54.72
64189;BME280;50493;50.970;10.082;2023-05-23T06:25:20;99172.91;;;18.22;51.51
64189;BME280;50493;50.970;10.082;2023-05-23T06:27:46;99167.16;;;19.20;49.17
64189;BME280;50493;50.970;10.082;2023-05-23T06:30:12;99170.00;;;18.73;49.02
64189;BME280;50493;50.970;10.082;2023-05-23T06:32:39;99162.03;;;19.90;46.28
64189;BME280;50493;50.970;10.082;2023-05-23T06:35:06;99159.13;;;19.65;46.50
64189;BME280;50493;50.970;10.082;2023-05-23T06:37:32;99153.13;;;18.90;48.56
64189;BME280;50493;50.970;10.082;2023-05-23T06:39:58;99162.09;;;18.10;50.97
64189;BME280;50493;50.970;10.082;2023-05-23T06:42:23;99155.44;;;18.03;50.96
64189;BME280;50493;50.970;10.082;2023-05-23T06:44:49;99161.41;;;17.75;52.12
64189;BME280;50493;50.970;10.082;2023-05-23T06:47:14;99164.19;;;17.22;53.81
64189;BME280;50493;50.970;10.082;2023-05-23T06:49:39;99169.22;;;17.27;53.71
64189;BME280;50493;50.970;10.082;2023-05-23T06:52:06;99167.09;;;17.67;52.22
64189;BME280;50493;50.970;10.082;2023-05-23T06:54:31;99175.72;;;17.37;53.21
64189;BME280;50493;50.970;10.082;2023-05-23T06:56:57;99179.94;;;17.24;53.82
64189;BME280;50493;50.970;10.082;2023-05-23T06:59:22;99178.25;;;17.56;52.63
64189;BME280;50493;50.970;10.082;2023-05-23T07:01:47;99180.44;;;17.48;53.09
64189;BME280;50493;50.970;10.082;2023-05-23T07:04:13;99170.44;;;17.37;53.65
64189;BME280;50493;50.970;10.082;2023-05-23T07:06:38;99180.03;;;17.22;53.85
64189;BME280;50493;50.970;10.082;2023-05-23T07:09:05;99179.50;;;17.15;54.36
64189;BME280;50493;50.970;10.082;2023-05-23T07:11:30;99177.84;;;17.30;54.17
64189;BME280;50493;50.970;10.082;2023-05-23T07:13:56;99174.63;;;17.41;53.36
64189;BME280;50493;50.970;10.082;2023-05-23T07:16:21;99183.97;;;17.31;53.93
64189;BME280;50493;50.970;10.082;2023-05-23T07:18:46;99177.63;;;17.84;52.18
64189;BME280;50493;50.970;10.082;2023-05-23T07:21:12;99181.38;;;18.12;51.46
64189;BME280;50493;50.970;10.082;2023-05-23T07:23:37;99178.59;;;17.66;52.26
64189;BME280;50493;50.970;10.082;2023-05-23T07:26:04;99183.81;;;17.67;52.29
64189;BME280;50493;50.970;10.082;2023-05-23T07:28:29;99186.06;;;17.08;54.43
64189;BME280;50493;50.970;10.082;2023-05-23T07:30:55;99190.09;;;16.80;55.82
64189;BME280;50493;50.970;10.082;2023-05-23T07:33:22;99185.09;;;17.09;54.73
64189;BME280;50493;50.970;10.082;2023-05-23T07:35:47;99196.75;;;16.88;55.70
64189;BME280;50493;50.970;10.082;2023-05-23T07:38:13;99191.34;;;16.91;55.55
64189;BME280;50493;50.970;10.082;2023-05-23T07:40:38;99195.28;;;16.99;55.32
64189;BME280;50493;50.970;10.082;2023-05-23T07:43:05;99197.38;;;17.10;55.00
64189;BME280;50493;50.970;10.082;2023-05-23T07:45:31;99194.91;;;16.90;55.27
64189;BME280;50493;50.970;10.082;2023-05-23T07:47:56;99200.66;;;16.80;55.79
64189;BME280;50493;50.970;10.082;2023-05-23T07:50:21;99204.34;;;16.76;56.16
64189;BME280;50493;50.970;10.082;2023-05-23T07:52:47;99191.81;;;16.81;55.95
64189;BME280;50493;50.970;10.082;2023-05-23T07:55:12;99189.91;;;17.18;54.46
64189;BME280;50493;50.970;10.082;2023-05-23T07:57:38;99194.75;;;16.93;55.83
64189;BME280;50493;50.970;10.082;2023-05-23T08:00:06;99188.53;;;17.11;54.92
64189;BME280;50493;50.970;10.082;2023-05-23T08:02:31;99191.72;;;17.51;53.96
64189;BME280;50493;50.970;10.082;2023-05-23T08:04:57;99193.22;;;17.40;53.93
64189;BME280;50493;50.970;10.082;2023-05-23T08:07:23;99199.22;;;17.26;54.50
64189;BME280;50493;50.970;10.082;2023-05-23T08:09:49;99199.03;;;17.46;53.39
64189;BME280;50493;50.970;10.082;2023-05-23T08:12:14;99203.13;;;18.01;52.12
64189;BME280;50493;50.970;10.082;2023-05-23T08:14:39;99208.66;;;17.81;52.25
64189;BME280;50493;50.970;10.082;2023-05-23T08:17:06;99218.78;;;17.39;54.09
64189;BME280;50493;50.970;10.082;2023-05-23T08:19:31;99204.19;;;16.79;56.39
64189;BME280;50493;50.970;10.082;2023-05-23T08:21:57;99214.31;;;17.06;55.18
64189;BME280;50493;50.970;10.082;2023-05-23T08:24:22;99213.84;;;16.98;55.29
64189;BME280;50493;50.970;10.082;2023-05-23T08:26:48;99213.13;;;16.94;55.40
64189;BME280;50493;50.970;10.082;2023-05-23T08:29:14;99214.53;;;17.52;53.63
64189;BME280;50493;50.970;10.082;2023-05-23T08:31:39;99203.00;;;17.71;53.31
64189;BME280;50493;50.970;10.082;2023-05-23T08:34:06;99203.66;;;17.59;53.30
64189;BME280;50493;50.970;10.082;2023-05-23T08:36:32;99214.59;;;17.68;52.84
64189;BME280;50493;50.970;10.082;2023-05-23T08:39:00;99211.72;;;17.73;53.04
64189;BME280;50493;50.970;10.082;2023-05-23T08:41:26;99231.00;;;17.58;53.52
64189;BME280;50493;50.970;10.082;2023-05-23T08:43:52;99225.81;;;17.56;54.17
64189;BME280;50493;50.970;10.082;2023-05-23T08:46:17;99225.28;;;17.49;53.63
64189;BME280;50493;50.970;10.082;2023-05-23T08:48:49;99234.66;;;17.39;54.41
64189;BME280;50493;50.970;10.082;2023-05-23T08:51:17;99236.97;;;17.28;54.93
64189;BME280;50493;50.970;10.082;2023-05-23T08:53:44;99239.69;;;17.26;54.55
64189;BME280;50493;50.970;10.082;2023-05-23T08:56:13;99239.50;;;17.13;55.38
64189;BME280;50493;50.970;10.082;2023-05-23T08:58:40;99248.00;;;17.01;55.28
64189;BME280;50493;50.970;10.082;2023-05-23T09:01:06;99248.69;;;17.40;54.54
64189;BME280;50493;50.970;10.082;2023-05-23T09:03:34;99246.66;;;17.45;54.53
64189;BME280;50493;50.970;10.082;2023-05-23T09:06:02;99255.91;;;17.36;54.77
64189;BME280;50493;50.970;10.082;2023-05-23T09:08:28;99255.09;;;17.18;55.24
64189;BME280;50493;50.970;10.082;2023-05-23T09:10:54;99253.44;;;17.15;54.97
64189;BME280;50493;50.970;10.082;2023-05-23T09:13:20;99259.53;;;17.17;55.52
64189;BME280;50493;50.970;10.082;2023-05-23T09:16:01;99262.63;;;17.26;55.17
64189;BME280;50493;50.970;10.082;2023-05-23T09:18:32;99264.25;;;17.28;55.33
64189;BME280;50493;50.970;10.082;2023-05-23T09:20:58;99262.63;;;17.26;55.16
64189;BME280;50493;50.970;10.082;2023-05-23T09:23:23;99255.91;;;17.36;54.80
64189;BME280;50493;50.970;10.082;2023-05-23T09:25:50;99251.09;;;17.44;54.66
64189;BME280;50493;50.970;10.082;2023-05-23T09:28:16;99254.47;;;17.64;54.36
64189;BME280;50493;50.970;10.082;2023-05-23T09:30:41;99261.28;;;17.34;54.82
64189;BME280;50493;50.970;10.082;2023-05-23T09:33:07;99270.38;;;17.29;55.17
64189;BME280;50493;50.970;10.082;2023-05-23T09:35:32;99265.72;;;17.16;55.81
64189;BME280;50493;50.970;10.082;2023-05-23T09:37:57;99259.53;;;17.00;56.20
64189;BME280;50493;50.970;10.082;2023-05-23T09:40:30;99269.69;;;17.25;55.24
64189;BME280;50493;50.970;10.082;2023-05-23T09:43:02;99264.47;;;17.06;55.75
64189;BME280;50493;50.970;10.082;2023-05-23T09:45:29;99257.28;;;17.10;55.75
64189;BME280;50493;50.970;10.082;2023-05-23T09:47:54;99260.81;;;17.26;55.46
64189;BME280;50493;50.970;10.082;2023-05-23T09:50:21;99262.59;;;17.43;54.49
64189;BME280;50493;50.970;10.082;2023-05-23T09:52:46;99260.53;;;17.32;54.90
64189;BME280;50493;50.970;10.082;2023-05-23T09:55:12;99258.28;;;17.25;55.20
64189;BME280;50493;50.970;10.082;2023-05-23T09:57:39;99265.09;;;17.29;55.13
64189;BME280;50493;50.970;10.082;2023-05-23T10:00:09;99270.13;;;17.33;56.73
64189;BME280;50493;50.970;10.082;2023-05-23T10:03:04;99276.13;;;17.19;55.55
64189;BME280;50493;50.970;10.082;2023-05-23T10:05:37;99266.50;;;17.01;56.29
64189;BME280;50493;50.970;10.082;2023-05-23T10:08:07;99273.13;;;17.10;56.21
64189;BME280;50493;50.970;10.082;2023-05-23T10:13:35;99267.38;;;17.52;54.80
64189;BME280;50493;50.970;10.082;2023-05-23T10:16:07;99270.19;;;18.00;53.10
64189;BME280;50493;50.970;10.082;2023-05-23T10:18:38;99270.94;;;18.02;52.96
64189;BME280;50493;50.970;10.082;2023-05-23T10:21:10;99278.28;;;17.97;52.86
64189;BME280;50493;50.970;10.082;2023-05-23T10:23:36;99281.53;;;17.86;53.15
64189;BME280;50493;50.970;10.082;2023-05-23T10:26:03;99280.13;;;17.79;53.20
64189;BME280;50493;50.970;10.082;2023-05-23T10:28:29;99282.75;;;17.62;53.91
64189;BME280;50493;50.970;10.082;2023-05-23T10:30:54;99279.19;;;17.63;53.94
64189;BME280;50493;50.970;10.082;2023-05-23T10:33:21;99292.81;;;17.55;54.40
64189;BME280;50493;50.970;10.082;2023-05-23T10:35:52;99293.69;;;17.38;55.18
64189;BME280;50493;50.970;10.082;2023-05-23T10:38:29;99295.34;;;17.23;55.50
64189;BME280;50493;50.970;10.082;2023-05-23T10:41:01;99300.97;;;16.98;56.18
64189;BME280;50493;50.970;10.082;2023-05-23T10:43:37;99303.94;;;16.92;56.98
64189;BME280;50493;50.970;10.082;2023-05-23T10:46:07;99308.19;;;16.94;56.59
64189;BME280;50493;50.970;10.082;2023-05-23T10:48:34;99315.63;;;16.67;57.82
64189;BME280;50493;50.970;10.082;2023-05-23T10:51:01;99315.63;;;16.67;57.52
64189;BME280;50493;50.970;10.082;2023-05-23T10:53:28;99329.63;;;16.69;57.58
64189;BME280;50493;50.970;10.082;2023-05-23T10:55:55;99329.56;;;16.51;57.79
64189;BME280;50493;50.970;10.082;2023-05-23T10:58:20;99337.19;;;16.58;57.71
64189;BME280;50493;50.970;10.082;2023-05-23T11:00:51;99333.41;;;16.44;57.98
64189;BME280;50493;50.970;10.082;2023-05-23T11:03:18;99334.63;;;16.56;57.61
64189;BME280;50493;50.970;10.082;2023-05-23T11:05:51;99344.50;;;16.52;57.31
64189;BME280;50493;50.970;10.082;2023-05-23T11:08:19;99346.09;;;16.55;57.39
64189;BME280;50493;50.970;10.082;2023-05-23T11:10:52;99342.78;;;16.51;57.25
64189;BME280;50493;50.970;10.082;2023-05-23T11:13:18;99349.03;;;16.30;57.64
64189;BME280;50493;50.970;10.082;2023-05-23T11:15:45;99354.16;;;16.33;57.28
64189;BME280;50493;50.970;10.082;2023-05-23T11:18:18;99358.16;;;16.23;57.72
64189;BME280;50493;50.970;10.082;2023-05-23T11:20:45;99364.28;;;16.23;57.69
64189;BME280;50493;50.970;10.082;2023-05-23T11:23:12;99366.00;;;16.24;57.62
64189;BME280;50493;50.970;10.082;2023-05-23T11:25:39;99369.28;;;16.29;57.20
64189;BME280;50493;50.970;10.082;2023-05-23T11:28:06;99369.28;;;16.29;57.35
64189;BME280;50493;50.970;10.082;2023-05-23T11:30:31;99375.28;;;16.33;56.93
64189;BME280;50493;50.970;10.082;2023-05-23T11:32:57;99374.50;;;16.31;57.09
64189;BME280;50493;50.970;10.082;2023-05-23T11:35:23;99377.00;;;16.34;56.99
64189;BME280;50493;50.970;10.082;2023-05-23T11:37:48;99375.69;;;16.24;57.17
64189;BME280;50493;50.970;10.082;2023-05-23T11:40:29;99374.25;;;16.16;57.16
64189;BME280;50493;50.970;10.082;2023-05-23T11:42:56;99378.25;;;16.25;57.03
64189;BME280;50493;50.970;10.082;2023-05-23T11:45:21;99380.28;;;16.39;56.50
64189;BME280;50493;50.970;10.082;2023-05-23T11:47:47;99384.84;;;16.55;55.72
64189;BME280;50493;50.970;10.082;2023-05-23T11:50:13;99385.69;;;16.55;55.68
64189;BME280;50493;50.970;10.082;2023-05-23T11:52:39;99390.47;;;16.66;55.52
64189;BME280;50493;50.970;10.082;2023-05-23T11:55:06;99391.81;;;16.75;55.38
64189;BME280;50493;50.970;10.082;2023-05-23T11:57:32;99390.56;;;16.83;54.90
64189;BME280;50493;50.970;10.082;2023-05-23T11:59:58;99389.25;;;16.73;55.47
64189;BME280;50493;50.970;10.082;2023-05-23T12:02:27;99391.50;;;16.63;55.53
64189;BME280;50493;50.970;10.082;2023-05-23T12:04:52;99390.72;;;16.80;54.98
64189;BME280;50493;50.970;10.082;2023-05-23T12:07:18;99383.75;;;16.59;55.60
64189;BME280;50493;50.970;10.082;2023-05-23T12:09:43;99395.81;;;16.64;55.51
64189;BME280;50493;50.970;10.082;2023-05-23T12:12:09;99409.97;;;16.63;55.39
64189;BME280;50493;50.970;10.082;2023-05-23T12:14:36;99403.91;;;16.80;54.73
64189;BME280;50493;50.970;10.082;2023-05-23T12:17:08;99411.25;;;16.93;54.52
64189;BME280;50493;50.970;10.082;2023-05-23T12:19:34;99412.72;;;16.79;54.95
64189;BME280;50493;50.970;10.082;2023-05-23T12:22:04;99422.88;;;16.89;54.14
64189;BME280;50493;50.970;10.082;2023-05-23T12:24:31;99421.88;;;16.91;54.26
64189;BME280;50493;50.970;10.082;2023-05-23T12:26:57;99418.25;;;16.94;54.29
64189;BME280;50493;50.970;10.082;2023-05-23T12:29:28;99427.59;;;16.82;54.38
64189;BME280;50493;50.970;10.082;2023-05-23T12:31:57;99413.47;;;16.83;54.45
64189;BME280;50493;50.970;10.082;2023-05-23T12:34:22;99419.38;;;16.69;54.42
64189;BME280;50493;50.970;10.082;2023-05-23T12:36:48;99422.94;;;16.68;54.77
64189;BME280;50493;50.970;10.082;2023-05-23T12:39:13;99417.56;;;16.69;54.61
64189;BME280;50493;50.970;10.082;2023-05-23T12:41:41;99425.03;;;16.80;54.48
64189;BME280;50493;50.970;10.082;2023-05-23T12:44:07;99430.03;;;16.66;54.60
64189;BME280;50493;50.970;10.082;2023-05-23T12:46:33;99424.66;;;16.69;54.26
64189;BME280;50493;50.970;10.082;2023-05-23T12:49:00;99425.97;;;16.59;55.15
64189;BME280;50493;50.970;10.082;2023-05-23T12:51:25;99416.94;;;16.64;54.53
64189;BME280;50493;50.970;10.082;2023-05-23T12:53:50;99415.81;;;16.70;54.36